createdAt,value
2023-03-23T15:59:12.458Z,99645.29
2023-03-23T16:01:50.070Z,99650.95
2023-03-23T16:04:25.915Z,99652.23
2023-03-23T16:07:02.797Z,99651.73
2023-03-23T16:09:37.261Z,99648.02
2023-03-23T16:12:13.604Z,99643.19
2023-03-23T16:14:45.260Z,99654.27
2023-03-23T16:17:23.619Z,99645.67
2023-03-23T16:19:59.036Z,99644.77
2023-03-23T16:22:34.267Z,99648.55
2023-03-23T16:25:08.923Z,99652.39
2023-03-23T16:27:50.502Z,99655.01
2023-03-23T16:30:30.285Z,99656.41
2023-03-23T16:33:05.326Z,99656.20
2023-03-23T16:35:38.338Z,99660.00
2023-03-23T16:38:10.068Z,99666.81
2023-03-23T16:40:43.058Z,99664.95
2023-03-23T16:43:14.451Z,99656.71
2023-03-23T16:45:48.747Z,99660.79
2023-03-23T16:48:21.730Z,99663.61
2023-03-23T16:50:55.537Z,99667.66
2023-03-23T16:53:30.281Z,99671.80
2023-03-23T16:56:07.295Z,99672.27
2023-03-23T16:58:40.036Z,99677.83
2023-03-23T17:01:16.573Z,99680.09
2023-03-23T17:03:51.493Z,99680.52
2023-03-23T17:06:27.295Z,99690.95
2023-03-23T17:09:02.121Z,99689.73
2023-03-23T17:11:41.099Z,99688.05
2023-03-23T17:14:15.897Z,99690.04
2023-03-23T17:16:49.967Z,99695.98
2023-03-23T17:19:25.935Z,99698.38
2023-03-23T17:22:02.092Z,99700.92
2023-03-23T17:24:42.458Z,99696.24
2023-03-23T17:27:22.290Z,99694.54
2023-03-23T17:29:56.028Z,99700.27
2023-03-23T17:32:29.387Z,99696.24
2023-03-23T17:35:01.289Z,99695.58
2023-03-23T17:37:31.748Z,99697.14
2023-03-23T17:40:02.877Z,99697.62
2023-03-23T17:42:35.519Z,99701.65
2023-03-23T17:45:10.940Z,99697.73
2023-03-23T17:47:47.575Z,99702.86
2023-03-23T17:50:18.458Z,99704.55
2023-03-23T17:52:55.269Z,99701.87
2023-03-23T17:55:30.951Z,99705.70
2023-03-23T17:58:03.603Z,99711.25
2023-03-23T18:00:33.924Z,99713.34
2023-03-23T18:03:03.688Z,99713.55
2023-03-23T18:05:34.753Z,99720.98
2023-03-23T18:08:06.126Z,99727.91
2023-03-23T18:10:37.913Z,99734.42
2023-03-23T18:13:10.914Z,99738.91
2023-03-23T18:15:46.568Z,99737.94
2023-03-23T18:18:19.004Z,99735.35
2023-03-23T18:21:03.671Z,99722.45
2023-03-23T18:23:45.942Z,99724.48
2023-03-23T18:26:26.188Z,99727.80
2023-03-23T18:28:58.029Z,99725.45
2023-03-23T18:31:28.690Z,99729.11
2023-03-23T18:33:59.283Z,99733.77
2023-03-23T18:37:08.129Z,99734.52
2023-03-23T18:39:51.915Z,99739.03
2023-03-23T18:42:26.193Z,99741.91
2023-03-23T18:45:04.877Z,99744.77
2023-03-23T18:47:41.460Z,99751.21
2023-03-23T18:50:14.097Z,99758.61
2023-03-23T18:52:46.239Z,99762.33
2023-03-23T18:55:22.025Z,99759.73
2023-03-23T18:57:51.835Z,99765.89
2023-03-23T19:00:21.865Z,99767.70
2023-03-23T19:02:54.888Z,99768.17
2023-03-23T19:05:25.953Z,99767.38
2023-03-23T19:07:55.554Z,99768.36
2023-03-23T19:10:25.866Z,99764.98
2023-03-23T19:12:54.138Z,99760.56
2023-03-23T19:15:28.321Z,99759.27
2023-03-23T19:17:57.290Z,99756.37
2023-03-23T19:20:57.299Z,99750.36
2023-03-23T19:23:18.098Z,99746.44
2023-03-23T19:25:50.467Z,99748.66
2023-03-23T19:29:03.860Z,99752.13
2023-03-23T19:31:16.175Z,99760.11
2023-03-23T19:33:45.558Z,99754.52
2023-03-23T19:36:18.484Z,99755.36
2023-03-23T19:38:50.487Z,99753.56
2023-03-23T19:41:27.039Z,99760.36
2023-03-23T19:43:57.314Z,99764.40
2023-03-23T19:46:29.070Z,99760.80
2023-03-23T19:49:01.131Z,99758.60
2023-03-23T19:51:34.469Z,99761.89
2023-03-23T19:54:05.464Z,99757.52
2023-03-23T19:56:37.915Z,99751.46
2023-03-23T19:59:16.580Z,99753.54
2023-03-23T20:01:51.660Z,99758.29
2023-03-23T20:04:25.033Z,99761.23
2023-03-23T20:07:00.095Z,99769.11
2023-03-23T20:09:35.517Z,99770.71
2023-03-23T20:12:12.500Z,99772.11
2023-03-23T20:14:49.365Z,99777.34
2023-03-23T20:17:25.539Z,99781.86
2023-03-23T20:20:00.373Z,99784.84
2023-03-23T20:22:35.337Z,99784.26
2023-03-23T20:25:05.263Z,99786.52
2023-03-23T20:27:40.487Z,99781.77
2023-03-23T20:30:12.776Z,99781.82
2023-03-23T20:32:46.624Z,99783.89
2023-03-23T20:35:15.041Z,99784.67
2023-03-23T20:37:46.810Z,99790.33
2023-03-23T20:40:17.750Z,99791.76
2023-03-23T20:42:48.901Z,99797.86
2023-03-23T20:45:21.746Z,99798.42
2023-03-23T20:47:59.051Z,99795.20
2023-03-23T20:50:29.031Z,99791.02
2023-03-23T20:53:02.675Z,99787.16
2023-03-23T20:55:31.889Z,99785.79
2023-03-23T20:58:05.408Z,99787.58
2023-03-23T21:00:37.437Z,99789.86
2023-03-23T21:03:11.320Z,99785.67
2023-03-23T21:05:45.837Z,99787.29
2023-03-23T21:08:20.997Z,99786.76
2023-03-23T21:10:52.346Z,99790.05
2023-03-23T21:13:21.748Z,99790.19
2023-03-23T21:15:54.230Z,99789.11
2023-03-23T21:18:24.984Z,99790.90
2023-03-23T21:20:58.342Z,99786.38
2023-03-23T21:23:32.150Z,99788.75
2023-03-23T21:26:04.017Z,99793.11
2023-03-23T21:28:36.822Z,99796.54
2023-03-23T21:31:10.661Z,99797.99
2023-03-23T21:33:42.100Z,99806.66
2023-03-23T21:36:11.763Z,99808.61
2023-03-23T21:38:42.109Z,99806.88
2023-03-23T21:41:17.651Z,99809.02
2023-03-23T21:43:50.434Z,99809.20
2023-03-23T21:46:19.913Z,99806.73
2023-03-23T21:48:53.329Z,99806.10
2023-03-23T21:51:26.166Z,99800.03
2023-03-23T21:53:56.903Z,99801.27
2023-03-23T21:56:32.361Z,99794.70
2023-03-23T21:59:05.927Z,99797.17
2023-03-23T22:01:37.531Z,99792.02
2023-03-23T22:04:08.858Z,99794.48
2023-03-23T22:06:40.735Z,99790.86
2023-03-23T22:09:11.061Z,99789.22
2023-03-23T22:11:42.346Z,99786.66
2023-03-23T22:14:15.034Z,99791.59
2023-03-23T22:16:49.185Z,99791.85
2023-03-23T22:19:17.757Z,99783.38
2023-03-23T22:21:50.093Z,99789.17
2023-03-23T22:24:19.875Z,99788.80
2023-03-23T22:26:53.529Z,99790.85
2023-03-23T22:29:27.918Z,99784.82
2023-03-23T22:32:02.584Z,99786.98
2023-03-23T22:34:34.671Z,99792.00
2023-03-23T22:37:09.577Z,99787.97
2023-03-23T22:39:48.554Z,99789.63
2023-03-23T22:42:23.096Z,99789.59
2023-03-23T22:44:59.217Z,99787.64
2023-03-23T22:47:31.627Z,99789.11
2023-03-23T22:50:05.138Z,99786.86
2023-03-23T22:52:38.899Z,99785.73
2023-03-23T22:55:13.980Z,99780.48
2023-03-23T22:57:50.312Z,99787.01
2023-03-23T23:00:25.372Z,99787.18
2023-03-23T23:02:57.370Z,99782.52
2023-03-23T23:05:27.795Z,99780.54
2023-03-23T23:07:59.371Z,99782.33
2023-03-23T23:10:29.360Z,99781.52
2023-03-23T23:13:04.478Z,99779.23
2023-03-23T23:15:37.449Z,99779.62
2023-03-23T23:18:09.536Z,99773.56
2023-03-23T23:20:41.694Z,99773.88
2023-03-23T23:23:18.054Z,99775.75
2023-03-23T23:25:54.632Z,99772.86
2023-03-23T23:28:31.601Z,99775.55
2023-03-23T23:31:05.089Z,99774.02
2023-03-23T23:33:39.662Z,99774.70
2023-03-23T23:36:12.757Z,99773.75
2023-03-23T23:38:48.431Z,99771.31
2023-03-23T23:41:19.329Z,99764.27
2023-03-23T23:43:54.790Z,99761.87
2023-03-23T23:46:24.941Z,99761.16
2023-03-23T23:48:57.400Z,99761.77
2023-03-23T23:51:30.542Z,99760.58
2023-03-23T23:54:04.233Z,99755.59
2023-03-23T23:56:39.504Z,99753.64
2023-03-23T23:59:11.222Z,99752.27
